createdAt,value
2022-10-04T00:02:52.674Z,71.90
2022-10-04T00:07:58.762Z,71.48
2022-10-04T00:13:04.122Z,71.90
2022-10-04T00:18:11.322Z,71.83
2022-10-04T00:23:24.991Z,71.82
2022-10-04T00:28:26.566Z,71.53
2022-10-04T00:33:52.802Z,71.81
2022-10-04T00:39:09.458Z,71.78
2022-10-04T00:44:21.630Z,71.86
2022-10-04T00:49:29.481Z,71.58
2022-10-04T00:54:41.150Z,71.84
2022-10-04T00:59:52.528Z,71.71
2022-10-04T01:05:04.022Z,71.54
2022-10-04T01:10:13.220Z,71.69
2022-10-04T01:15:43.877Z,71.74
2022-10-04T01:20:50.299Z,71.76
2022-10-04T01:25:52.608Z,71.63
2022-10-04T01:30:54.967Z,71.85
2022-10-04T01:35:57.253Z,71.90
2022-10-04T01:41:02.199Z,71.50
2022-10-04T01:46:09.979Z,72.11
2022-10-04T01:51:33.600Z,71.92
2022-10-04T01:56:47.855Z,72.05
2022-10-04T02:01:55.392Z,72.15
2022-10-04T02:06:59.984Z,71.96
2022-10-04T02:12:01.925Z,71.74
2022-10-04T02:17:10.339Z,71.64
2022-10-04T02:22:11.783Z,71.59
2022-10-04T02:27:14.417Z,71.63
2022-10-04T02:32:34.480Z,71.77
2022-10-04T02:37:38.422Z,71.45
2022-10-04T02:42:49.058Z,71.48
2022-10-04T02:48:04.645Z,71.76
2022-10-04T02:53:23.137Z,71.98
2022-10-04T02:58:26.539Z,71.78
2022-10-04T03:03:37.484Z,72.20
2022-10-04T03:08:50.153Z,71.76
2022-10-04T03:13:55.507Z,72.12
2022-10-04T03:18:57.953Z,71.87
2022-10-04T03:24:01.269Z,71.79
2022-10-04T03:29:07.287Z,71.92
2022-10-04T03:34:36.668Z,72.13
2022-10-04T03:39:41.851Z,71.92
2022-10-04T03:44:45.896Z,72.47
2022-10-04T03:49:50.984Z,71.86
2022-10-04T03:54:57.690Z,72.46
2022-10-04T04:00:00.718Z,72.34
2022-10-04T04:05:02.067Z,72.34
2022-10-04T04:10:20.658Z,72.47
2022-10-04T04:15:23.340Z,72.27
2022-10-04T04:20:34.545Z,72.50
2022-10-04T04:25:39.392Z,72.53
2022-10-04T04:30:46.763Z,72.46
2022-10-04T04:35:48.349Z,72.38
2022-10-04T04:40:55.460Z,72.73
2022-10-04T04:46:15.322Z,72.40
2022-10-04T04:51:23.674Z,72.56
2022-10-04T04:56:28.454Z,72.47
2022-10-04T05:01:45.853Z,72.38
2022-10-04T05:07:09.907Z,72.15
2022-10-04T05:12:17.570Z,72.20
2022-10-04T05:17:25.721Z,72.44
2022-10-04T05:22:29.519Z,72.03
2022-10-04T05:27:36.937Z,72.36
2022-10-04T05:32:53.807Z,72.19
2022-10-04T05:38:16.422Z,72.10
2022-10-04T05:43:27.088Z,72.18
2022-10-04T05:48:28.488Z,72.05
2022-10-04T05:53:32.897Z,71.82
2022-10-04T05:59:01.962Z,71.74
2022-10-04T06:04:17.559Z,72.36
2022-10-04T06:09:47.961Z,72.03
2022-10-04T06:15:14.592Z,71.97
2022-10-04T06:20:47.543Z,71.57
2022-10-04T06:25:51.161Z,71.80
2022-10-04T06:31:18.567Z,71.51
2022-10-04T06:36:57.062Z,71.93
2022-10-04T06:42:17.087Z,72.00
2022-10-04T06:47:48.833Z,71.95
2022-10-04T06:53:11.431Z,71.74
2022-10-04T06:58:40.341Z,71.82
2022-10-04T07:03:57.195Z,71.60
2022-10-04T07:09:03.141Z,71.67
2022-10-04T07:14:09.880Z,71.50
2022-10-04T07:19:20.054Z,71.54
2022-10-04T07:24:32.568Z,71.08
2022-10-04T07:29:42.250Z,71.30
2022-10-04T07:34:52.002Z,71.38
2022-10-04T07:40:04.326Z,70.55
2022-10-04T07:45:21.436Z,70.44
2022-10-04T07:50:24.593Z,70.63
2022-10-04T07:55:40.614Z,70.28
2022-10-04T08:01:00.549Z,70.07
2022-10-04T08:06:10.347Z,70.00
2022-10-04T08:11:31.369Z,69.77
2022-10-04T08:16:43.318Z,69.91
2022-10-04T08:22:09.526Z,69.52
2022-10-04T08:27:34.932Z,69.59
2022-10-04T08:32:40.454Z,69.62
2022-10-04T08:38:14.552Z,69.49
2022-10-04T08:43:44.240Z,69.30
2022-10-04T08:49:13.280Z,69.19
2022-10-04T08:54:42.502Z,69.22
2022-10-04T09:00:20.999Z,69.20
2022-10-04T09:05:46.571Z,69.20
2022-10-04T09:10:47.860Z,69.37
2022-10-04T09:16:00.257Z,68.83
2022-10-04T09:28:55.236Z,67.71
2022-10-04T09:34:37.292Z,67.83
2022-10-04T09:40:01.171Z,68.18
2022-10-04T09:45:06.377Z,67.82
2022-10-04T09:50:30.030Z,67.77
2022-10-04T09:55:53.063Z,67.79
2022-10-04T10:01:29.580Z,67.03
2022-10-04T10:07:10.154Z,66.77
2022-10-04T10:13:02.953Z,67.00
2022-10-04T10:18:31.500Z,67.04
2022-10-04T10:24:22.929Z,67.26
2022-10-04T14:09:02.491Z,56.78
2022-10-04T14:14:23.039Z,56.70
2022-10-04T14:19:30.812Z,56.71
2022-10-04T14:24:36.053Z,56.01
2022-10-04T14:29:53.591Z,56.59
2022-10-04T14:35:02.710Z,55.80
2022-10-04T14:40:52.153Z,55.50
2022-10-04T14:46:08.845Z,55.64
2022-10-04T14:51:29.072Z,55.55
2022-10-04T14:56:59.015Z,55.76
2022-10-04T15:02:00.401Z,55.78
2022-10-04T15:07:22.971Z,56.14
2022-10-04T15:18:26.496Z,56.72
2022-10-04T15:23:40.194Z,57.02
2022-10-04T15:29:03.227Z,57.26
2022-10-04T15:34:26.213Z,57.38
2022-10-04T15:39:42.931Z,57.56
2022-10-04T15:45:06.065Z,57.53
2022-10-04T15:50:31.371Z,57.58
2022-10-04T15:55:35.828Z,57.61
2022-10-04T16:00:48.934Z,57.42
2022-10-04T16:06:20.743Z,57.29
2022-10-04T16:12:06.346Z,57.64
2022-10-04T16:17:09.619Z,57.66
2022-10-04T16:22:18.123Z,57.79
2022-10-04T16:27:24.705Z,57.81
2022-10-04T16:32:59.698Z,58.14
2022-10-04T16:38:14.222Z,58.46
2022-10-04T16:43:15.633Z,58.73
2022-10-04T16:48:35.873Z,58.92
2022-10-04T16:54:14.107Z,59.33
2022-10-04T16:59:15.756Z,59.75
2022-10-04T17:04:41.531Z,60.07
2022-10-04T17:10:06.143Z,60.25
2022-10-04T17:15:33.524Z,60.11
2022-10-04T17:20:40.952Z,60.04
2022-10-04T17:25:51.769Z,60.24
2022-10-04T17:31:02.942Z,60.22
2022-10-04T17:36:19.123Z,60.42
2022-10-04T17:41:35.566Z,60.47
2022-10-04T17:46:50.578Z,60.42
2022-10-04T17:52:15.438Z,60.49
2022-10-04T17:57:35.128Z,60.65
2022-10-04T18:03:02.158Z,60.54
2022-10-04T18:08:13.724Z,60.76
2022-10-04T18:13:39.427Z,61.24
2022-10-04T18:18:43.567Z,61.10
2022-10-04T18:23:54.261Z,61.47
2022-10-04T18:28:57.323Z,61.56
2022-10-04T18:34:16.392Z,61.99
2022-10-04T18:39:21.884Z,61.41
2022-10-04T18:44:44.343Z,61.52
2022-10-04T18:49:53.406Z,61.83
2022-10-04T18:55:18.279Z,61.88
2022-10-04T19:00:38.717Z,62.15
2022-10-04T19:05:51.463Z,61.97
2022-10-04T19:10:59.572Z,62.30
2022-10-04T19:16:29.065Z,62.31
2022-10-04T19:21:44.353Z,62.34
2022-10-04T19:26:56.853Z,62.09
2022-10-04T19:32:11.361Z,62.52
2022-10-04T19:37:31.065Z,62.46
2022-10-04T19:42:59.308Z,62.30
2022-10-04T19:48:11.766Z,62.02
2022-10-04T19:53:18.731Z,62.45
2022-10-04T19:58:24.067Z,62.25
2022-10-04T20:03:25.550Z,62.79
2022-10-04T20:08:58.021Z,62.66
2022-10-04T20:14:03.120Z,62.63
2022-10-04T20:19:17.815Z,62.25
2022-10-04T20:24:37.536Z,62.88
2022-10-04T20:29:38.876Z,62.23
2022-10-04T20:34:40.227Z,62.52
2022-10-04T20:39:41.830Z,62.41
2022-10-04T20:45:05.332Z,62.45
2022-10-04T20:50:40.473Z,62.54
2022-10-04T20:56:08.447Z,62.30
2022-10-04T21:01:35.604Z,62.83
2022-10-04T21:06:53.123Z,62.75
2022-10-04T21:11:56.381Z,62.93
2022-10-04T21:17:02.995Z,62.98
2022-10-04T21:22:05.834Z,62.98
2022-10-04T21:27:12.547Z,62.88
2022-10-04T21:32:13.968Z,62.98
2022-10-04T21:37:16.091Z,63.17
2022-10-04T21:42:18.053Z,63.46
2022-10-04T21:47:22.635Z,63.09
2022-10-04T21:52:24.037Z,63.06
2022-10-04T21:57:25.478Z,63.17
2022-10-04T22:02:26.850Z,63.13
2022-10-04T22:07:28.253Z,62.66
2022-10-04T22:12:29.638Z,62.74
2022-10-04T22:17:31.025Z,63.18
2022-10-04T22:22:35.327Z,63.04
2022-10-04T22:27:40.478Z,62.70
2022-10-04T22:32:41.986Z,62.59
2022-10-04T22:37:43.994Z,62.87
2022-10-04T22:42:48.739Z,62.48
2022-10-04T22:47:51.091Z,62.46
2022-10-04T22:52:52.484Z,62.14
2022-10-04T22:57:55.023Z,61.79
2022-10-04T23:02:56.563Z,61.36
2022-10-04T23:07:58.014Z,61.20
2022-10-04T23:12:59.445Z,60.96
2022-10-04T23:18:00.804Z,60.88
2022-10-04T23:23:02.445Z,60.71
2022-10-04T23:28:18.450Z,60.72
2022-10-04T23:33:21.673Z,60.21
2022-10-04T23:38:24.713Z,59.93
2022-10-04T23:43:26.789Z,59.82
2022-10-04T23:48:29.426Z,59.87
2022-10-04T23:53:31.559Z,60.20
2022-10-04T23:58:36.630Z,59.53
